Time;durP1;ratioP1;P1;durP2;ratioP2;P2;SDS_P1;SDS_P2;PMS_P1;PMS_P2;Temp;Humidity;BMP_temperature;BMP_pressure;BME280_temperature;BME280_humidity;BME280_pressure;Samples;Min_cycle;Max_cycle;Signal;HPM_P1;HPM_P2
2022/01/08 00:01:45;;;;;;;;;;;;;;;;;;5077391;28;20472;-83
2022/01/08 00:04:12;;;;;;;;;;;;;;;;;;5077372;28;20224;-83
2022/01/08 00:06:39;;;;;;;;;;;;;;;;;;5077306;28;20028;-84
2022/01/08 00:09:06;;;;;;;;;;;;;;;;;;5077198;28;20009;-83
2022/01/08 00:11:35;;;;;;;;;;;;;;;;;;5077393;28;19977;-83
2022/01/08 00:14:04;;;;;;;;;;;;;;;;;;5077228;28;19953;-83
2022/01/08 00:16:33;;;;;;;;;;;;;;;;;;5077197;28;19962;-83
2022/01/08 00:19:00;;;;;;;;;;;;;;;;;;5077031;28;19951;-83
2022/01/08 00:21:27;;;;;;;;;;;;;;;;;;5076917;28;20065;-83
2022/01/08 00:23:54;;;;;;;;;;;;;;;;;;5076870;28;20010;-83
2022/01/08 00:26:21;;;;;;;;;;;;;;;;;;5076824;28;20003;-83
2022/01/08 00:28:48;;;;;;;;;;;;;;;;;;5076962;28;20025;-83
2022/01/08 00:31:15;;;;;;;;;;;;;;;;;;5076727;28;19924;-83
2022/01/08 00:33:42;;;;;;;;;;;;;;;;;;5076723;28;20033;-83
2022/01/08 00:36:09;;;;;;;;;;;;;;;;;;5076533;28;20390;-83
2022/01/08 00:38:36;;;;;;;;;;;;;;;;;;5076823;28;20007;-83
2022/01/08 00:41:03;;;;;;;;;;;;;;;;;;5076605;28;19965;-83
2022/01/08 00:43:30;;;;;;;;;;;;;;;;;;5076506;28;20362;-83
2022/01/08 00:45:57;;;;;;;;;;;;;;;;;;5076579;28;20042;-84
2022/01/08 00:48:24;;;;;;;;;;;;;;;;;;5076274;28;19963;-83
2022/01/08 00:50:52;;;;;;;;;;;;;;;;;;5076543;28;20029;-84
2022/01/08 00:53:19;;;;;;;;;;;;;;;;;;5076690;28;19994;-84
2022/01/08 00:55:46;;;;;;;;;;;;;;;;;;5076654;28;20047;-83
2022/01/08 00:58:13;;;;;;;;;;;;;;;;;;5076353;28;20462;-83
2022/01/08 01:00:41;;;;;;;;;;;;;;;;;;5076227;28;20008;-83
2022/01/08 01:03:08;;;;;;;;;;;;;;;;;;5076419;28;19944;-83
2022/01/08 01:05:35;;;;;;;;;;;;;;;;;;5074636;28;20020;-83
2022/01/08 01:08:02;;;;;;;;;;;;;;;;;;5076199;28;20034;-83
2022/01/08 01:10:29;;;;;;;;;;;;;;;;;;5076093;28;20037;-83
2022/01/08 01:12:56;;;;;;;;;;;;;;;;;;5075909;28;20380;-83
2022/01/08 01:15:23;;;;;;;;;;;;;;;;;;5076078;28;20042;-82
2022/01/08 01:17:50;;;;;;;;;;;;;;;;;;5075931;28;19956;-82
2022/01/08 01:20:17;;;;;;;;;;;;;;;;;;5075948;28;20037;-83
2022/01/08 01:22:52;;;;;;;;;;;;;;;;;;5075952;28;19924;-83
2022/01/08 01:25:23;;;;;;;;;;;;;;;;;;5075856;28;20341;-83
2022/01/08 01:28:00;;;;;;;;;;;;;;;;;;5075805;28;20332;-82
2022/01/08 01:30:52;;;;;;;;;;;;;;;;;;5075720;28;19924;-83
2022/01/08 01:41:38;;;;;;;;;;;;;;;;;;5075464;28;19927;-82
2022/01/08 01:47:03;;;;;;;;;;;;;;;;;;5075572;28;19931;-83
2022/01/08 01:49:30;;;;;;;;;;;;;;;;;;5075152;28;19986;-82
2022/01/08 01:51:59;;;;;;;;;;;;;;;;;;5075664;28;20015;-82
2022/01/08 01:54:26;;;;;;;;;;;;;;;;;;5075316;28;19947;-82
2022/01/08 01:56:53;;;;;;;;;;;;;;;;;;5075292;28;19973;-82
2022/01/08 01:59:19;;;;;;;;;;;;;;;;;;5075164;28;19943;-82
2022/01/08 02:01:46;;;;;;;;;;;;;;;;;;5074851;28;20009;-82
2022/01/08 02:04:13;;;;;;;;;;;;;;;;;;5075249;28;20011;-82
2022/01/08 02:06:40;;;;;;;;;;;;;;;;;;5075118;28;20005;-82
2022/01/08 02:09:07;;;;;;;;;;;;;;;;;;5075095;28;20098;-82
2022/01/08 02:11:34;;;;;;;;;;;;;;;;;;5074913;28;19996;-83
2022/01/08 02:14:01;;;;;;;;;;;;;;;;;;5074913;28;19982;-83
2022/01/08 02:16:28;;;;;;;;;;;;;;;;;;5074301;28;20038;-83
2022/01/08 02:18:55;;;;;;;;;;;;;;;;;;5074899;28;20031;-82
2022/01/08 02:21:22;;;;;;;;;;;;;;;;;;5074759;28;20019;-83
2022/01/08 02:23:49;;;;;;;;;;;;;;;;;;5074694;28;20040;-83
2022/01/08 02:26:16;;;;;;;;;;;;;;;;;;5074543;28;20038;-83
2022/01/08 02:28:43;;;;;;;;;;;;;;;;;;5074588;28;19980;-83
2022/01/08 02:31:10;;;;;;;;;;;;;;;;;;5074688;28;20048;-82
2022/01/08 02:33:38;;;;;;;;;;;;;;;;;;5074483;28;19948;-83
2022/01/08 02:36:05;;;;;;;;;;;;;;;;;;5074587;28;20029;-83
2022/01/08 02:38:32;;;;;;;;;;;;;;;;;;5074518;28;19998;-83
2022/01/08 02:41:02;;;;;;;;;;;;;;;;;;5074321;28;20043;-83
2022/01/08 02:43:33;;;;;;;;;;;;;;;;;;5074097;28;19983;-83
2022/01/08 02:46:00;;;;;;;;;;;;;;;;;;5074719;28;19924;-83
2022/01/08 02:48:27;;;;;;;;;;;;;;;;;;5074111;28;20050;-83
2022/01/08 02:50:54;;;;;;;;;;;;;;;;;;5074247;28;20041;-83
2022/01/08 02:53:21;;;;;;;;;;;;;;;;;;5074046;28;19978;-83
2022/01/08 02:55:48;;;;;;;;;;;;;;;;;;5074053;28;20007;-83
2022/01/08 02:58:15;;;;;;;;;;;;;;;;;;5074273;28;20000;-84
2022/01/08 03:00:42;;;;;;;;;;;;;;;;;;5073823;28;20019;-84
2022/01/08 03:03:09;;;;;;;;;;;;;;;;;;5073732;28;20497;-84
2022/01/08 03:05:36;;;;;;;;;;;;;;;;;;5073897;28;20024;-83
2022/01/08 03:08:03;;;;;;;;;;;;;;;;;;5073837;28;20041;-84
2022/01/08 03:10:30;;;;;;;;;;;;;;;;;;5073778;28;20011;-84
2022/01/08 03:12:57;;;;;;;;;;;;;;;;;;5074021;28;20011;-83
2022/01/08 03:15:25;;;;;;;;;;;;;;;;;;5073909;28;19978;-83
2022/01/08 03:17:52;;;;;;;;;;;;;;;;;;5073951;28;19925;-84
2022/01/08 03:20:19;;;;;;;;;;;;;;;;;;5073798;28;20368;-85
2022/01/08 03:22:46;;;;;;;;;;;;;;;;;;5073685;28;19934;-84
2022/01/08 03:25:13;;;;;;;;;;;;;;;;;;5073848;28;20386;-84
2022/01/08 03:27:41;;;;;;;;;;;;;;;;;;5073156;28;20026;-84
2022/01/08 03:30:08;;;;;;;;;;;;;;;;;;5073623;28;20372;-83
2022/01/08 03:32:35;;;;;;;;;;;;;;;;;;5073710;28;19971;-84
2022/01/08 03:35:02;;;;;;;;;;;;;;;;;;5073459;28;20483;-83
2022/01/08 03:37:29;;;;;;;;;;;;;;;;;;5073532;28;20029;-84
2022/01/08 03:39:56;;;;;;;;;;;;;;;;;;5073718;28;20040;-85
2022/01/08 03:42:23;;;;;;;;;;;;;;;;;;5073366;28;20402;-84
2022/01/08 03:44:50;;;;;;;;;;;;;;;;;;5073671;28;20034;-84
2022/01/08 03:47:30;;;;;;;;;;;;;;;;;;5073364;28;20007;-83
2022/01/08 03:49:57;;;;;;;;;;;;;;;;;;5073316;28;19924;-83
2022/01/08 03:52:24;;;;;;;;;;;;;;;;;;5073589;28;20030;-84
2022/01/08 03:54:51;;;;;;;;;;;;;;;;;;5073466;28;20025;-84
2022/01/08 03:57:18;;;;;;;;;;;;;;;;;;5073542;28;19975;-84
2022/01/08 03:59:45;;;;;;;;;;;;;;;;;;5073321;28;20055;-84
2022/01/08 04:02:12;;;;;;;;;;;;;;;;;;5073245;28;19961;-85
2022/01/08 04:04:39;;;;;;;;;;;;;;;;;;5073321;28;20019;-84
2022/01/08 04:07:06;;;;;;;;;;;;;;;;;;5073565;28;20024;-83
2022/01/08 04:09:34;;;;;;;;;;;;;;;;;;5073324;28;20471;-85
2022/01/08 04:12:03;;;;;;;;;;;;;;;;;;5073357;28;19969;-85
2022/01/08 04:14:37;;;;;;;;;;;;;;;;;;5073167;28;19924;-83
2022/01/08 04:17:04;;;;;;;;;;;;;;;;;;5073207;28;19950;-84
2022/01/08 04:19:31;;;;;;;;;;;;;;;;;;5073474;28;19970;-84
2022/01/08 04:22:09;;;;;;;;;;;;;;;;;;5073138;28;20015;-85
2022/01/08 04:24:36;;;;;;;;;;;;;;;;;;5073148;28;20453;-85
2022/01/08 04:27:05;;;;;;;;;;;;;;;;;;5072653;28;20207;-85
2022/01/08 04:29:32;;;;;;;;;;;;;;;;;;5073166;28;20011;-83
2022/01/08 04:31:59;;;;;;;;;;;;;;;;;;5072920;28;19989;-84
2022/01/08 04:34:27;;;;;;;;;;;;;;;;;;5072918;28;20011;-85
2022/01/08 04:36:54;;;;;;;;;;;;;;;;;;5072803;28;20406;-85
2022/01/08 04:39:21;;;;;;;;;;;;;;;;;;5074384;28;19943;-83
2022/01/08 04:41:48;;;;;;;;;;;;;;;;;;5076586;28;20016;-86
2022/01/08 04:44:15;;;;;;;;;;;;;;;;;;5076633;28;20015;-85
2022/01/08 04:46:42;;;;;;;;;;;;;;;;;;5076732;28;19983;-83
2022/01/08 04:49:09;;;;;;;;;;;;;;;;;;5076182;28;20019;-85
2022/01/08 04:51:36;;;;;;;;;;;;;;;;;;5076663;28;20019;-85
2022/01/08 04:54:03;;;;;;;;;;;;;;;;;;5076466;28;20446;-83
2022/01/08 04:56:30;;;;;;;;;;;;;;;;;;5076342;28;20038;-84
2022/01/08 04:58:57;;;;;;;;;;;;;;;;;;5076284;28;20044;-84
2022/01/08 05:01:24;;;;;;;;;;;;;;;;;;5076324;28;20016;-85
2022/01/08 05:03:51;;;;;;;;;;;;;;;;;;5076394;28;20042;-83
2022/01/08 05:06:18;;;;;;;;;;;;;;;;;;5076303;28;20011;-84
2022/01/08 05:08:45;;;;;;;;;;;;;;;;;;5076060;28;20023;-84
2022/01/08 05:11:12;;;;;;;;;;;;;;;;;;5076182;28;19956;-88
2022/01/08 05:13:39;;;;;;;;;;;;;;;;;;5076204;28;20045;-84
2022/01/08 05:16:06;;;;;;;;;;;;;;;;;;5076197;28;20485;-84
2022/01/08 05:18:33;;;;;;;;;;;;;;;;;;5076396;28;19974;-85
2022/01/08 05:21:11;;;;;;;;;;;;;;;;;;5076159;28;19970;-86
2022/01/08 05:23:38;;;;;;;;;;;;;;;;;;5075874;28;19960;-85
2022/01/08 05:26:05;;;;;;;;;;;;;;;;;;5075836;28;19982;-84
2022/01/08 05:28:32;;;;;;;;;;;;;;;;;;5076055;28;20027;-86
2022/01/08 05:30:59;;;;;;;;;;;;;;;;;;5076320;28;20040;-87
2022/01/08 05:33:26;;;;;;;;;;;;;;;;;;5075918;28;20045;-87
2022/01/08 05:35:53;;;;;;;;;;;;;;;;;;5075826;28;20394;-85
2022/01/08 05:38:20;;;;;;;;;;;;;;;;;;5075639;28;20031;-85
2022/01/08 05:40:47;;;;;;;;;;;;;;;;;;5075805;28;20018;-86
2022/01/08 05:43:14;;;;;;;;;;;;;;;;;;5075310;28;20005;-86
2022/01/08 05:45:41;;;;;;;;;;;;;;;;;;5075662;28;20037;-85
2022/01/08 05:48:09;;;;;;;;;;;;;;;;;;5075221;28;20486;-85
2022/01/08 05:50:36;;;;;;;;;;;;;;;;;;5074649;28;19949;-86
2022/01/08 05:53:03;;;;;;;;;;;;;;;;;;5075292;28;20435;-85
2022/01/08 05:55:30;;;;;;;;;;;;;;;;;;5075429;28;20015;-85
2022/01/08 05:57:57;;;;;;;;;;;;;;;;;;5075343;28;20031;-83
2022/01/08 06:00:24;;;;;;;;;;;;;;;;;;5075571;28;20015;-86
2022/01/08 06:02:51;;;;;;;;;;;;;;;;;;5075230;28;19964;-85
2022/01/08 06:05:18;;;;;;;;;;;;;;;;;;5074933;28;20383;-85
2022/01/08 06:07:45;;;;;;;;;;;;;;;;;;5075057;28;20033;-83
2022/01/08 06:10:12;;;;;;;;;;;;;;;;;;5074930;28;20022;-83
2022/01/08 06:12:39;;;;;;;;;;;;;;;;;;5075092;28;20038;-84
2022/01/08 06:15:06;;;;;;;;;;;;;;;;;;5074881;28;20029;-84
2022/01/08 06:17:33;;;;;;;;;;;;;;;;;;5074810;28;20009;-86
2022/01/08 06:20:00;;;;;;;;;;;;;;;;;;5074782;28;20022;-83
2022/01/08 06:22:27;;;;;;;;;;;;;;;;;;5074749;28;20382;-83
2022/01/08 06:24:54;;;;;;;;;;;;;;;;;;5074389;28;20340;-84
2022/01/08 06:27:21;;;;;;;;;;;;;;;;;;5074547;28;20045;-84
2022/01/08 06:29:48;;;;;;;;;;;;;;;;;;5074250;28;20450;-84
2022/01/08 06:32:15;;;;;;;;;;;;;;;;;;5074353;28;19967;-84
2022/01/08 06:34:42;;;;;;;;;;;;;;;;;;5074301;28;20381;-85
2022/01/08 06:37:09;;;;;;;;;;;;;;;;;;5074400;28;20015;-84
2022/01/08 06:39:36;;;;;;;;;;;;;;;;;;5074396;28;20012;-85
2022/01/08 06:42:03;;;;;;;;;;;;;;;;;;5074041;28;19990;-84
2022/01/08 06:44:30;;;;;;;;;;;;;;;;;;5074164;28;19964;-84
2022/01/08 06:46:57;;;;;;;;;;;;;;;;;;5074009;28;19963;-84
2022/01/08 06:49:24;;;;;;;;;;;;;;;;;;5073734;28;20027;-84
2022/01/08 06:51:51;;;;;;;;;;;;;;;;;;5074192;28;19974;-84
2022/01/08 06:54:18;;;;;;;;;;;;;;;;;;5073757;28;20035;-84
2022/01/08 06:56:45;;;;;;;;;;;;;;;;;;5073880;28;20042;-83
2022/01/08 06:59:12;;;;;;;;;;;;;;;;;;5074025;28;20037;-84
2022/01/08 07:01:39;;;;;;;;;;;;;;;;;;5073886;28;20023;-84
2022/01/08 07:04:06;;;;;;;;;;;;;;;;;;5073910;28;20053;-84
2022/01/08 07:06:33;;;;;;;;;;;;;;;;;;5073695;28;19982;-84
2022/01/08 07:09:00;;;;;;;;;;;;;;;;;;5074172;28;19971;-83
2022/01/08 07:11:27;;;;;;;;;;;;;;;;;;5073828;28;20350;-83
2022/01/08 07:13:54;;;;;;;;;;;;;;;;;;5073817;28;20015;-83
2022/01/08 07:16:21;;;;;;;;;;;;;;;;;;5073632;28;20033;-84
2022/01/08 07:18:48;;;;;;;;;;;;;;;;;;5074008;28;20046;-84
2022/01/08 07:21:15;;;;;;;;;;;;;;;;;;5073885;28;20003;-83
2022/01/08 07:23:42;;;;;;;;;;;;;;;;;;5073576;28;20047;-83
2022/01/08 07:26:09;;;;;;;;;;;;;;;;;;5073680;28;19944;-83
2022/01/08 07:28:38;;;;;;;;;;;;;;;;;;5073545;28;20019;-84
2022/01/08 07:31:05;;;;;;;;;;;;;;;;;;5073847;28;19946;-83
2022/01/08 07:33:32;;;;;;;;;;;;;;;;;;5073709;28;19993;-83
2022/01/08 07:35:59;;;;;;;;;;;;;;;;;;5073587;28;20015;-82
2022/01/08 07:38:26;;;;;;;;;;;;;;;;;;5073644;28;20008;-84
2022/01/08 07:40:53;;;;;;;;;;;;;;;;;;5073617;28;19978;-85
2022/01/08 07:43:20;;;;;;;;;;;;;;;;;;5073347;28;20049;-82
2022/01/08 07:45:47;;;;;;;;;;;;;;;;;;5073695;28;20034;-83
2022/01/08 07:48:14;;;;;;;;;;;;;;;;;;5073421;28;19970;-83
2022/01/08 07:50:41;;;;;;;;;;;;;;;;;;5073716;28;20292;-83
2022/01/08 07:53:08;;;;;;;;;;;;;;;;;;5073274;28;19997;-83
2022/01/08 07:55:35;;;;;;;;;;;;;;;;;;5073384;28;19975;-83
2022/01/08 07:58:02;;;;;;;;;;;;;;;;;;5073222;28;20460;-83
2022/01/08 08:00:29;;;;;;;;;;;;;;;;;;5073368;28;20014;-83
2022/01/08 08:02:56;;;;;;;;;;;;;;;;;;5073198;28;19967;-83
2022/01/08 08:05:23;;;;;;;;;;;;;;;;;;5073314;28;19976;-84
2022/01/08 08:07:50;;;;;;;;;;;;;;;;;;5073191;28;20394;-83
2022/01/08 08:10:18;;;;;;;;;;;;;;;;;;5073175;28;20032;-83
2022/01/08 08:12:45;;;;;;;;;;;;;;;;;;5073266;28;19948;-82
2022/01/08 08:15:15;;;;;;;;;;;;;;;;;;5076317;28;19944;-83
2022/01/08 08:17:42;;;;;;;;;;;;;;;;;;5077295;28;19925;-83
2022/01/08 08:20:09;;;;;;;;;;;;;;;;;;5077130;28;20037;-83
2022/01/08 08:22:36;;;;;;;;;;;;;;;;;;5076317;28;19971;-83
2022/01/08 08:25:03;;;;;;;;;;;;;;;;;;5077022;28;20011;-83
2022/01/08 08:27:30;;;;;;;;;;;;;;;;;;5077149;28;20015;-83
2022/01/08 08:29:57;;;;;;;;;;;;;;;;;;5077004;28;19943;-84
2022/01/08 08:32:24;;;;;;;;;;;;;;;;;;5076988;28;19943;-83
2022/01/08 08:34:51;;;;;;;;;;;;;;;;;;5076757;28;20007;-82
2022/01/08 08:37:18;;;;;;;;;;;;;;;;;;5076709;28;19943;-84
2022/01/08 08:39:45;;;;;;;;;;;;;;;;;;5076753;28;20379;-84
2022/01/08 08:42:12;;;;;;;;;;;;;;;;;;5076476;28;19967;-82
2022/01/08 08:44:39;;;;;;;;;;;;;;;;;;5076734;28;20049;-83
2022/01/08 08:47:06;;;;;;;;;;;;;;;;;;5076642;28;20043;-84
2022/01/08 08:49:33;;;;;;;;;;;;;;;;;;5076210;28;19968;-83
2022/01/08 08:52:00;;;;;;;;;;;;;;;;;;5076238;28;20034;-83
2022/01/08 08:54:27;;;;;;;;;;;;;;;;;;5076262;28;20443;-85
2022/01/08 08:56:54;;;;;;;;;;;;;;;;;;5076393;28;19948;-83
2022/01/08 08:59:23;;;;;;;;;;;;;;;;;;5076373;28;20035;-82
2022/01/08 09:01:50;;;;;;;;;;;;;;;;;;5076097;28;19956;-83
2022/01/08 09:04:17;;;;;;;;;;;;;;;;;;5076218;28;20047;-83
2022/01/08 09:06:44;;;;;;;;;;;;;;;;;;5076030;28;19978;-84
2022/01/08 09:09:11;;;;;;;;;;;;;;;;;;5076232;28;20043;-84
2022/01/08 09:11:38;;;;;;;;;;;;;;;;;;5076080;28;20023;-84
2022/01/08 09:14:05;;;;;;;;;;;;;;;;;;5075998;28;20036;-82
2022/01/08 09:16:32;;;;;;;;;;;;;;;;;;5075979;28;20032;-84
2022/01/08 09:18:59;;;;;;;;;;;;;;;;;;5075969;28;19984;-82
2022/01/08 09:21:27;;;;;;;;;;;;;;;;;;5075871;28;20007;-84
2022/01/08 09:23:54;;;;;;;;;;;;;;;;;;5075952;28;19958;-84
2022/01/08 09:26:21;;;;;;;;;;;;;;;;;;5074730;28;20037;-83
2022/01/08 09:28:48;;;;;;;;;;;;;;;;;;5076041;28;19971;-84
2022/01/08 09:31:17;;;;;;;;;;;;;;;;;;5075815;28;19978;-83
2022/01/08 09:33:44;;;;;;;;;;;;;;;;;;5075635;28;20003;-84
2022/01/08 09:36:11;;;;;;;;;;;;;;;;;;5075731;28;20018;-83
2022/01/08 09:38:38;;;;;;;;;;;;;;;;;;5075571;28;20015;-83
2022/01/08 09:41:05;;;;;;;;;;;;;;;;;;5075294;28;20125;-84
2022/01/08 09:43:32;;;;;;;;;;;;;;;;;;5075237;28;19954;-84
2022/01/08 09:45:59;;;;;;;;;;;;;;;;;;5075295;28;20383;-83
2022/01/08 09:48:26;;;;;;;;;;;;;;;;;;5075502;28;20024;-84
2022/01/08 09:50:53;;;;;;;;;;;;;;;;;;5075210;28;20299;-83
2022/01/08 09:53:20;;;;;;;;;;;;;;;;;;5075540;28;20019;-84
2022/01/08 09:55:47;;;;;;;;;;;;;;;;;;5075185;28;19982;-83
2022/01/08 09:58:14;;;;;;;;;;;;;;;;;;5075160;28;20037;-84
2022/01/08 10:00:41;;;;;;;;;;;;;;;;;;5075046;28;20011;-84
2022/01/08 10:03:08;;;;;;;;;;;;;;;;;;5075027;28;20023;-84
2022/01/08 10:05:35;;;;;;;;;;;;;;;;;;5075119;28;20330;-83
2022/01/08 10:08:02;;;;;;;;;;;;;;;;;;5075191;28;20033;-83
2022/01/08 10:10:29;;;;;;;;;;;;;;;;;;5074452;28;19925;-84
2022/01/08 10:12:58;;;;;;;;;;;;;;;;;;5074718;28;20341;-83
2022/01/08 10:18:10;;;;;;;;;;;;;;;;;;5073787;28;20085;-84
2022/01/08 10:20:37;;;;;;;;;;;;;;;;;;5074764;28;20442;-84
2022/01/08 10:23:04;;;;;;;;;;;;;;;;;;5074680;28;20040;-84
2022/01/08 10:25:31;;;;;;;;;;;;;;;;;;5074763;28;20049;-83
2022/01/08 10:27:58;;;;;;;;;;;;;;;;;;5074522;28;20091;-83
2022/01/08 10:30:25;;;;;;;;;;;;;;;;;;5074944;28;19960;-84
2022/01/08 10:32:52;;;;;;;;;;;;;;;;;;5074783;28;20329;-84
2022/01/08 10:35:19;;;;;;;;;;;;;;;;;;5074297;28;20500;-84
2022/01/08 10:37:46;;;;;;;;;;;;;;;;;;5074062;28;20052;-84
2022/01/08 10:40:13;;;;;;;;;;;;;;;;;;5074243;28;20480;-84
2022/01/08 10:42:40;;;;;;;;;;;;;;;;;;5074231;28;20423;-83
2022/01/08 10:45:07;;;;;;;;;;;;;;;;;;5074327;28;20028;-84
2022/01/08 10:47:34;;;;;;;;;;;;;;;;;;5074294;28;20037;-84
2022/01/08 10:50:02;;;;;;;;;;;;;;;;;;5074018;28;20407;-83
2022/01/08 10:52:29;;;;;;;;;;;;;;;;;;5074201;28;20009;-83
2022/01/08 10:54:56;;;;;;;;;;;;;;;;;;5074214;28;20033;-82
2022/01/08 10:57:23;;;;;;;;;;;;;;;;;;5074020;28;20436;-83
2022/01/08 10:59:50;;;;;;;;;;;;;;;;;;5074772;28;20011;-83
2022/01/08 11:02:17;;;;;;;;;;;;;;;;;;5074073;28;20027;-83
2022/01/08 11:04:45;;;;;;;;;;;;;;;;;;5073698;28;20061;-83
2022/01/08 11:07:12;;;;;;;;;;;;;;;;;;5073973;28;20376;-83
2022/01/08 11:09:39;;;;;;;;;;;;;;;;;;5073856;28;19971;-84
2022/01/08 11:12:07;;;;;;;;;;;;;;;;;;5073777;28;19976;-82
2022/01/08 11:15:01;;;;;;;;;;;;;;;;;;5073973;28;19978;-83
2022/01/08 11:17:28;;;;;;;;;;;;;;;;;;5073685;28;19949;-83
2022/01/08 11:19:55;;;;;;;;;;;;;;;;;;5073580;28;19979;-82
2022/01/08 11:22:22;;;;;;;;;;;;;;;;;;5073996;28;20015;-84
2022/01/08 11:24:49;;;;;;;;;;;;;;;;;;5073567;28;20023;-84
2022/01/08 11:27:16;;;;;;;;;;;;;;;;;;5073687;28;20033;-83
2022/01/08 11:29:43;;;;;;;;;;;;;;;;;;5073650;28;20038;-84
2022/01/08 11:32:10;;;;;;;;;;;;;;;;;;5073583;28;19950;-82
2022/01/08 11:34:38;;;;;;;;;;;;;;;;;;5073501;28;20478;-84
2022/01/08 11:37:05;;;;;;;;;;;;;;;;;;5074123;28;19930;-83
2022/01/08 11:39:32;;;;;;;;;;;;;;;;;;5073920;28;20042;-83
2022/01/08 11:41:59;;;;;;;;;;;;;;;;;;5073536;28;19959;-83
2022/01/08 11:44:26;;;;;;;;;;;;;;;;;;5073512;28;20358;-83
2022/01/08 11:46:53;;;;;;;;;;;;;;;;;;5073380;28;20042;-82
2022/01/08 11:49:20;;;;;;;;;;;;;;;;;;5072425;28;20052;-82
2022/01/08 11:51:47;;;;;;;;;;;;;;;;;;5073483;28;20029;-82
2022/01/08 11:54:14;;;;;;;;;;;;;;;;;;5073250;28;20467;-81
2022/01/08 11:56:42;;;;;;;;;;;;;;;;;;5073326;28;19953;-83
2022/01/08 11:59:10;;;;;;;;;;;;;;;;;;5073389;28;19970;-82
2022/01/08 12:01:37;;;;;;;;;;;;;;;;;;5073289;28;20028;-83
2022/01/08 12:04:05;;;;;;;;;;;;;;;;;;5073219;28;20392;-88
2022/01/08 12:06:33;;;;;;;;;;;;;;;;;;5073482;28;19928;-81
2022/01/08 12:09:07;;;;;;;;;;;;;;;;;;5073280;28;20347;-83
2022/01/08 12:11:34;;;;;;;;;;;;;;;;;;5073071;28;19960;-85
2022/01/08 12:14:01;;;;;;;;;;;;;;;;;;5073341;28;20039;-83
2022/01/08 12:16:28;;;;;;;;;;;;;;;;;;5073228;28;20048;-84
2022/01/08 12:18:55;;;;;;;;;;;;;;;;;;5073152;28;20018;-82
2022/01/08 12:21:22;;;;;;;;;;;;;;;;;;5073299;28;20043;-82
2022/01/08 12:23:49;;;;;;;;;;;;;;;;;;5073039;28;19974;-83
2022/01/08 12:26:16;;;;;;;;;;;;;;;;;;5072973;28;19987;-84
2022/01/08 12:28:45;;;;;;;;;;;;;;;;;;5073060;28;19973;-83
2022/01/08 12:31:12;;;;;;;;;;;;;;;;;;5073277;28;19954;-82
2022/01/08 12:33:41;;;;;;;;;;;;;;;;;;5072909;28;20491;-83
2022/01/08 12:36:08;;;;;;;;;;;;;;;;;;5072807;28;20014;-84
2022/01/08 12:38:36;;;;;;;;;;;;;;;;;;5072957;28;20034;-83
2022/01/08 12:41:03;;;;;;;;;;;;;;;;;;5072682;28;20000;-83
2022/01/08 12:43:30;;;;;;;;;;;;;;;;;;5072961;28;20036;-83
2022/01/08 12:45:57;;;;;;;;;;;;;;;;;;5072685;28;20465;-83
2022/01/08 12:48:24;;;;;;;;;;;;;;;;;;5072769;28;20056;-83
2022/01/08 12:50:51;;;;;;;;;;;;;;;;;;5072848;28;20047;-83
2022/01/08 12:53:19;;;;;;;;;;;;;;;;;;5072795;28;20038;-83
2022/01/08 12:55:46;;;;;;;;;;;;;;;;;;5072597;28;19987;-83
2022/01/08 12:58:14;;;;;;;;;;;;;;;;;;5072763;28;20433;-83
2022/01/08 13:00:42;;;;;;;;;;;;;;;;;;5074682;28;20018;-82
2022/01/08 13:03:09;;;;;;;;;;;;;;;;;;5076305;28;20035;-82
2022/01/08 13:05:35;;;;;;;;;;;;;;;;;;5075977;28;19965;-81
2022/01/08 13:08:02;;;;;;;;;;;;;;;;;;5076024;28;20403;-82
2022/01/08 13:10:29;;;;;;;;;;;;;;;;;;5075851;28;20049;-83
2022/01/08 13:12:56;;;;;;;;;;;;;;;;;;5076075;28;20039;-84
2022/01/08 13:15:23;;;;;;;;;;;;;;;;;;5075815;28;20380;-82
2022/01/08 13:17:50;;;;;;;;;;;;;;;;;;5075963;28;20045;-83
2022/01/08 13:20:17;;;;;;;;;;;;;;;;;;5075848;28;20049;-82
2022/01/08 13:22:45;;;;;;;;;;;;;;;;;;5075867;28;19948;-82
2022/01/08 13:25:12;;;;;;;;;;;;;;;;;;5075600;28;20063;-82
2022/01/08 13:27:40;;;;;;;;;;;;;;;;;;5075739;28;19987;-84
2022/01/08 13:30:07;;;;;;;;;;;;;;;;;;5075269;28;19956;-83
2022/01/08 13:32:35;;;;;;;;;;;;;;;;;;5075533;28;20350;-82
2022/01/08 13:35:02;;;;;;;;;;;;;;;;;;5075636;28;19952;-82
2022/01/08 13:37:29;;;;;;;;;;;;;;;;;;5075608;28;20373;-82
2022/01/08 13:39:56;;;;;;;;;;;;;;;;;;5075848;28;20033;-82
2022/01/08 13:42:23;;;;;;;;;;;;;;;;;;5075482;28;20452;-83
2022/01/08 13:44:50;;;;;;;;;;;;;;;;;;5075518;28;20055;-82
2022/01/08 13:47:17;;;;;;;;;;;;;;;;;;5075236;28;19959;-83
2022/01/08 13:49:44;;;;;;;;;;;;;;;;;;5075183;28;20047;-83
2022/01/08 13:52:16;;;;;;;;;;;;;;;;;;5075204;28;20006;-82
2022/01/08 13:54:43;;;;;;;;;;;;;;;;;;5075396;28;19958;-82
2022/01/08 13:57:10;;;;;;;;;;;;;;;;;;5075783;28;20060;-81
2022/01/08 13:59:37;;;;;;;;;;;;;;;;;;5075236;28;20407;-83
2022/01/08 14:02:04;;;;;;;;;;;;;;;;;;5075455;28;19973;-82
2022/01/08 14:04:31;;;;;;;;;;;;;;;;;;5075076;28;20080;-82
2022/01/08 14:06:58;;;;;;;;;;;;;;;;;;5075455;28;19953;-82
2022/01/08 14:09:25;;;;;;;;;;;;;;;;;;5074944;28;20449;-82
2022/01/08 14:11:52;;;;;;;;;;;;;;;;;;5074256;28;20044;-81
2022/01/08 14:14:20;;;;;;;;;;;;;;;;;;5075010;28;19955;-82
2022/01/08 14:16:47;;;;;;;;;;;;;;;;;;5075102;28;20317;-82
2022/01/08 14:19:14;;;;;;;;;;;;;;;;;;5074808;28;19978;-83
2022/01/08 14:21:41;;;;;;;;;;;;;;;;;;5074916;28;19954;-81
2022/01/08 14:24:08;;;;;;;;;;;;;;;;;;5074899;28;20052;-82
2022/01/08 14:26:35;;;;;;;;;;;;;;;;;;5074715;28;20036;-83
2022/01/08 14:29:02;;;;;;;;;;;;;;;;;;5074668;28;20039;-82
2022/01/08 14:31:30;;;;;;;;;;;;;;;;;;5074473;28;20421;-81
2022/01/08 14:33:57;;;;;;;;;;;;;;;;;;5074412;28;19952;-81
2022/01/08 14:36:24;;;;;;;;;;;;;;;;;;5074604;28;20040;-80
2022/01/08 14:38:52;;;;;;;;;;;;;;;;;;5074411;28;20055;-81
2022/01/08 14:41:19;;;;;;;;;;;;;;;;;;5074256;28;20419;-81
2022/01/08 14:43:46;;;;;;;;;;;;;;;;;;5074382;28;20060;-80
2022/01/08 14:46:13;;;;;;;;;;;;;;;;;;5074176;28;20059;-80
2022/01/08 14:48:40;;;;;;;;;;;;;;;;;;5074376;28;20066;-82
2022/01/08 14:51:07;;;;;;;;;;;;;;;;;;5074125;28;20472;-82
2022/01/08 14:53:34;;;;;;;;;;;;;;;;;;5074303;28;20066;-83
2022/01/08 14:56:01;;;;;;;;;;;;;;;;;;5074068;28;19999;-82
2022/01/08 14:58:28;;;;;;;;;;;;;;;;;;5074010;28;19958;-83
2022/01/08 15:00:55;;;;;;;;;;;;;;;;;;5073895;28;19948;-82
2022/01/08 15:03:22;;;;;;;;;;;;;;;;;;5073818;28;20471;-82
2022/01/08 15:05:49;;;;;;;;;;;;;;;;;;5073896;28;20047;-82
2022/01/08 15:08:16;;;;;;;;;;;;;;;;;;5074270;28;20050;-82
2022/01/08 15:10:43;;;;;;;;;;;;;;;;;;5073964;28;20228;-81
2022/01/08 15:13:10;;;;;;;;;;;;;;;;;;5073730;28;20470;-82
2022/01/08 15:15:37;;;;;;;;;;;;;;;;;;5073985;28;20028;-82
2022/01/08 15:18:04;;;;;;;;;;;;;;;;;;5073958;28;20015;-83
2022/01/08 15:20:31;;;;;;;;;;;;;;;;;;5073715;28;20047;-81
2022/01/08 15:23:01;;;;;;;;;;;;;;;;;;5073421;28;20315;-82
2022/01/08 15:25:28;;;;;;;;;;;;;;;;;;5073181;28;19959;-82
2022/01/08 15:27:55;;;;;;;;;;;;;;;;;;5073599;28;20047;-82
2022/01/08 15:30:22;;;;;;;;;;;;;;;;;;5073607;28;20039;-82
2022/01/08 15:32:49;;;;;;;;;;;;;;;;;;5073527;28;19953;-82
2022/01/08 15:35:16;;;;;;;;;;;;;;;;;;5073714;28;20032;-83
2022/01/08 15:37:43;;;;;;;;;;;;;;;;;;5073647;28;20003;-82
2022/01/08 15:40:10;;;;;;;;;;;;;;;;;;5073238;28;20527;-83
2022/01/08 15:42:37;;;;;;;;;;;;;;;;;;5073688;28;20025;-82
2022/01/08 15:45:04;;;;;;;;;;;;;;;;;;5073654;28;20073;-83
2022/01/08 15:47:31;;;;;;;;;;;;;;;;;;5073412;28;20037;-83
2022/01/08 15:49:58;;;;;;;;;;;;;;;;;;5073199;28;20366;-83
2022/01/08 15:52:25;;;;;;;;;;;;;;;;;;5073464;28;20044;-82
2022/01/08 15:54:52;;;;;;;;;;;;;;;;;;5073368;28;20003;-83
2022/01/08 15:57:19;;;;;;;;;;;;;;;;;;5073700;28;20040;-82
2022/01/08 15:59:46;;;;;;;;;;;;;;;;;;5073502;28;19950;-82
2022/01/08 16:02:13;;;;;;;;;;;;;;;;;;5073294;28;20034;-83
2022/01/08 16:04:40;;;;;;;;;;;;;;;;;;5073247;28;20036;-83
2022/01/08 16:07:07;;;;;;;;;;;;;;;;;;5073273;28;20013;-83
2022/01/08 16:09:34;;;;;;;;;;;;;;;;;;5073066;28;20049;-83
2022/01/08 16:12:01;;;;;;;;;;;;;;;;;;5073224;28;20387;-83
2022/01/08 16:14:28;;;;;;;;;;;;;;;;;;5073129;28;20037;-83
2022/01/08 16:16:56;;;;;;;;;;;;;;;;;;5073076;28;19925;-82
2022/01/08 16:19:23;;;;;;;;;;;;;;;;;;5073201;28;19953;-78
2022/01/08 16:21:50;;;;;;;;;;;;;;;;;;5073066;28;19948;-78
2022/01/08 16:24:17;;;;;;;;;;;;;;;;;;5073038;28;20043;-79
2022/01/08 16:26:44;;;;;;;;;;;;;;;;;;5073039;28;20090;-83
2022/01/08 16:29:11;;;;;;;;;;;;;;;;;;5073154;28;20005;-83
2022/01/08 16:31:38;;;;;;;;;;;;;;;;;;5073122;28;20405;-83
2022/01/08 16:34:05;;;;;;;;;;;;;;;;;;5072951;28;20046;-83
2022/01/08 16:36:32;;;;;;;;;;;;;;;;;;5075924;28;19962;-82
2022/01/08 16:39:00;;;;;;;;;;;;;;;;;;5076945;28;20081;-83
2022/01/08 16:41:27;;;;;;;;;;;;;;;;;;5076623;28;20392;-83
2022/01/08 16:43:54;;;;;;;;;;;;;;;;;;5076748;28;20034;-83
2022/01/08 16:46:21;;;;;;;;;;;;;;;;;;5076492;28;20050;-83
2022/01/08 16:48:48;;;;;;;;;;;;;;;;;;5076290;28;19968;-83
2022/01/08 16:51:15;;;;;;;;;;;;;;;;;;5076398;28;20004;-84
2022/01/08 16:53:43;;;;;;;;;;;;;;;;;;5076589;28;20044;-83
2022/01/08 16:56:10;;;;;;;;;;;;;;;;;;5076357;28;19948;-84
2022/01/08 16:58:37;;;;;;;;;;;;;;;;;;5076475;28;20000;-83
2022/01/08 17:01:04;;;;;;;;;;;;;;;;;;5076303;28;19994;-84